Time;durP1;ratioP1;P1;durP2;ratioP2;P2;SDS_P1;SDS_P2;PMS_P1;PMS_P2;Temp;Humidity;BMP_temperature;BMP_pressure;BME280_temperature;BME280_humidity;BME280_pressure;Samples;Min_cycle;Max_cycle;Signal;HPM_P1;HPM_P2
2023/12/14 00:04:00;;;;;;;99.80;40.30;;;;;;;2.99;100.00;97676.06;273218;1269;22623;-91
2023/12/14 00:10:09;;;;;;;100.50;39.40;;;;;;;3.00;100.00;97675.75;270457;1269;22935;-91
2023/12/14 00:16:27;;;;;;;;;;;;;;;;;;;;;
2023/12/14 00:22:41;;;;;;;88.90;36.80;;;;;;;2.92;100.00;97687.98;270064;1270;22205;-90
2023/12/14 00:28:47;;;;;;;90.80;36.40;;;;;;;2.86;100.00;97695.64;271193;1263;22625;-92
2023/12/14 00:34:58;;;;;;;104.80;40.10;;;;;;;2.79;100.00;97697.20;271540;1267;22312;-91
2023/12/14 00:41:52;;;;;;;104.90;40.30;;;;;;;2.78;100.00;97702.11;271654;1268;22213;-91
2023/12/14 00:48:11;;;;;;;147.20;43.60;;;;;;;2.77;100.00;97707.20;272973;1272;23509;-91
2023/12/14 00:54:13;;;;;;;100.30;33.80;;;;;;;2.77;100.00;97713.98;271470;1269;22584;-90
2023/12/14 01:00:23;;;;;;;103.00;35.20;;;;;;;2.79;100.00;97722.52;270922;1268;22573;-92
2023/12/14 01:06:26;;;;;;;111.40;31.80;;;;;;;2.77;100.00;97727.33;271186;1270;23592;-91
2023/12/14 01:12:37;;;;;;;86.40;27.10;;;;;;;2.75;100.00;97726.66;270354;1269;24320;-91
2023/12/14 01:18:41;;;;;;;148.00;38.80;;;;;;;2.78;100.00;97730.20;271219;1270;23394;-90
2023/12/14 01:31:52;;;;;;;86.40;28.80;;;;;;;2.76;100.00;97730.39;272953;1269;22538;-91
2023/12/14 01:37:58;;;;;;;97.90;29.10;;;;;;;2.75;100.00;97729.77;273179;1269;22581;-91
2023/12/14 01:44:01;;;;;;;112.10;32.50;;;;;;;2.71;100.00;97724.82;271891;1269;22584;-90
2023/12/14 01:50:03;;;;;;;103.90;31.40;;;;;;;2.68;100.00;97729.54;271434;1269;22350;-91
2023/12/14 01:56:07;;;;;;;107.30;32.20;;;;;;;2.68;100.00;97729.38;271949;1269;25253;-90
2023/12/14 02:02:09;;;;;;;100.50;32.50;;;;;;;2.67;100.00;97732.91;271380;1269;23305;-90
2023/12/14 02:08:12;;;;;;;90.40;30.70;;;;;;;2.67;100.00;97734.21;270972;1269;22529;-91
2023/12/14 02:14:14;;;;;;;93.40;31.70;;;;;;;2.70;100.00;97732.05;272769;1268;22336;-91
2023/12/14 02:20:17;;;;;;;94.70;31.10;;;;;;;2.74;100.00;97737.77;272103;1256;23453;-91
2023/12/14 02:26:19;;;;;;;94.30;32.80;;;;;;;2.77;100.00;97745.10;273018;1269;23504;-90
2023/12/14 02:32:23;;;;;;;88.10;30.20;;;;;;;2.78;100.00;97749.83;273354;1257;101509;-91
2023/12/14 02:38:26;;;;;;;95.30;31.20;;;;;;;2.78;100.00;97757.86;271639;1270;22527;-91
2023/12/14 02:44:28;;;;;;;80.50;30.00;;;;;;;2.83;100.00;97759.11;270676;1269;22551;-90
2023/12/14 02:50:30;;;;;;;87.40;30.50;;;;;;;2.85;100.00;97763.98;271435;1269;23207;-91
2023/12/14 02:56:32;;;;;;;83.30;30.70;;;;;;;2.82;100.00;97765.14;272145;1269;23523;-91
2023/12/14 03:02:34;;;;;;;82.80;30.90;;;;;;;2.77;100.00;97776.84;273491;1270;22226;-91
2023/12/14 03:08:36;;;;;;;91.60;34.50;;;;;;;2.75;100.00;97781.65;273386;1269;22467;-91
2023/12/14 03:14:40;;;;;;;81.60;32.10;;;;;;;2.79;100.00;97789.99;273345;1269;22188;-91
2023/12/14 03:20:42;;;;;;;92.80;35.10;;;;;;;2.78;100.00;97791.21;273505;1272;22301;-91
2023/12/14 03:26:44;;;;;;;95.20;35.10;;;;;;;2.74;100.00;97797.45;273590;1269;22318;-90
2023/12/14 03:32:46;;;;;;;94.20;34.70;;;;;;;2.78;100.00;97796.16;271398;1269;22438;-91
2023/12/14 03:38:52;;;;;;;89.60;33.90;;;;;;;2.85;100.00;97795.62;270600;1269;22322;-91
2023/12/14 03:44:54;;;;;;;87.90;30.50;;;;;;;2.87;100.00;97809.02;270981;1272;23635;-90
2023/12/14 03:50:57;;;;;;;88.60;32.60;;;;;;;2.87;100.00;97822.48;273128;1270;22483;-91
2023/12/14 03:56:59;;;;;;;88.30;31.90;;;;;;;2.84;100.00;97832.52;273101;1270;22183;-91
2023/12/14 04:03:01;;;;;;;96.10;32.10;;;;;;;2.82;100.00;97846.73;272977;1269;22384;-90
2023/12/14 04:09:03;;;;;;;88.10;32.30;;;;;;;2.83;100.00;97859.52;271877;1272;22217;-91
2023/12/14 04:15:07;;;;;;;95.70;32.80;;;;;;;2.82;100.00;97872.92;271035;1272;22559;-90
2023/12/14 04:21:09;;;;;;;80.60;30.00;;;;;;;2.84;100.00;97884.72;271070;1260;22282;-90
2023/12/14 04:27:12;;;;;;;94.30;33.10;;;;;;;2.85;100.00;97891.39;270337;1272;22979;-90
2023/12/14 04:33:14;;;;;;;95.90;34.50;;;;;;;2.81;100.00;97894.77;270963;1270;22543;-91
2023/12/14 04:39:16;;;;;;;96.90;36.50;;;;;;;2.83;100.00;97898.52;270556;1270;23543;-91
2023/12/14 04:45:19;;;;;;;84.10;31.30;;;;;;;2.85;100.00;97904.66;272717;1269;22557;-89
2023/12/14 04:51:21;;;;;;;97.50;33.20;;;;;;;2.84;100.00;97911.20;270341;1272;22533;-91
2023/12/14 04:57:23;;;;;;;97.80;33.70;;;;;;;2.85;100.00;97920.10;270557;1269;22606;-89
2023/12/14 05:03:25;;;;;;;92.90;31.90;;;;;;;2.86;100.00;97938.20;271316;1272;22530;-90
2023/12/14 05:09:28;;;;;;;86.40;31.30;;;;;;;2.88;100.00;97944.35;271254;1276;22553;-90
2023/12/14 05:15:30;;;;;;;84.10;30.80;;;;;;;2.84;100.00;97949.12;272527;1270;22525;-89
2023/12/14 05:21:32;;;;;;;87.80;37.30;;;;;;;2.80;100.00;97949.72;271825;1271;22199;-90
2023/12/14 05:27:34;;;;;;;117.40;41.10;;;;;;;2.80;100.00;97954.19;271826;1272;23127;-90
2023/12/14 05:33:38;;;;;;;105.00;37.20;;;;;;;2.79;100.00;97958.56;273117;1269;22206;-90
2023/12/14 05:39:45;;;;;;;118.10;44.20;;;;;;;2.79;100.00;97965.36;272564;1272;25452;-90
2023/12/14 05:45:47;;;;;;;101.80;37.40;;;;;;;2.80;100.00;97979.44;271355;1276;27642;-91
2023/12/14 05:52:07;;;;;;;106.70;39.20;;;;;;;2.79;100.00;97991.70;271124;1271;23508;-91
2023/12/14 05:58:09;;;;;;;107.30;40.60;;;;;;;2.82;100.00;98001.66;272380;1272;22175;-89
2023/12/14 06:04:11;;;;;;;108.70;40.50;;;;;;;2.80;100.00;98005.69;273565;1277;22724;-89
2023/12/14 06:10:13;;;;;;;123.20;45.20;;;;;;;2.79;100.00;98014.69;272869;1269;23280;-91
2023/12/14 06:16:15;;;;;;;109.40;42.40;;;;;;;2.83;100.00;98025.30;273478;1272;22306;-90
2023/12/14 06:22:17;;;;;;;109.10;41.00;;;;;;;2.89;100.00;98031.87;273330;1270;22327;-90
2023/12/14 06:28:21;;;;;;;104.10;39.50;;;;;;;2.89;100.00;98032.73;272178;1270;22614;-90
2023/12/14 06:34:23;;;;;;;111.70;42.30;;;;;;;2.89;100.00;98042.31;270509;1273;22492;-90
2023/12/14 06:40:25;;;;;;;91.60;37.20;;;;;;;2.88;100.00;98052.95;271319;1270;22523;-90
2023/12/14 06:46:27;;;;;;;102.70;38.40;;;;;;;2.86;100.00;98061.39;271931;1271;24082;-90
2023/12/14 06:52:50;;;;;;;102.20;38.00;;;;;;;2.88;100.00;98079.28;272476;1269;22634;-91
2023/12/14 06:58:52;;;;;;;107.60;41.30;;;;;;;2.90;100.00;98084.88;273393;1271;22429;-90
2023/12/14 07:04:55;;;;;;;116.00;41.50;;;;;;;2.91;100.00;98090.23;272920;1270;22566;-90
2023/12/14 07:10:57;;;;;;;109.40;41.00;;;;;;;2.92;100.00;98101.23;272786;1270;23366;-90
2023/12/14 07:16:59;;;;;;;112.20;42.50;;;;;;;2.95;100.00;98106.19;272909;1269;22354;-90
2023/12/14 07:23:01;;;;;;;81.80;37.60;;;;;;;2.98;100.00;98114.05;273630;1271;22277;-90
2023/12/14 07:29:03;;;;;;;93.70;37.90;;;;;;;2.99;100.00;98130.16;273649;1269;23415;-90
2023/12/14 07:35:06;;;;;;;129.00;49.20;;;;;;;2.99;100.00;98137.96;272986;1270;22659;-89
2023/12/14 07:41:08;;;;;;;138.80;51.00;;;;;;;2.95;100.00;98148.68;273043;1270;23120;-90
2023/12/14 07:47:10;;;;;;;153.40;55.90;;;;;;;2.94;100.00;98157.54;273493;1270;22236;-89
2023/12/14 07:53:12;;;;;;;162.80;53.90;;;;;;;2.95;100.00;98157.48;273268;1270;22532;-90
2023/12/14 07:59:15;;;;;;;113.40;43.20;;;;;;;2.96;100.00;98162.15;272186;1270;22536;-90
2023/12/14 08:05:17;;;;;;;109.00;41.10;;;;;;;3.00;100.00;98165.89;272607;1270;22590;-89
2023/12/14 08:11:19;;;;;;;103.70;42.20;;;;;;;3.08;100.00;98175.81;270816;1272;22561;-90
2023/12/14 08:17:21;;;;;;;70.30;30.70;;;;;;;3.12;100.00;98189.32;270527;1269;22570;-91
2023/12/14 08:23:27;;;;;;;76.90;33.00;;;;;;;3.13;100.00;98199.61;271583;1257;22261;-90
2023/12/14 08:29:29;;;;;;;63.50;28.40;;;;;;;3.12;100.00;98212.09;273388;1269;22388;-90
2023/12/14 08:35:31;;;;;;;66.50;29.70;;;;;;;3.16;100.00;98223.48;273451;1269;22735;-90
2023/12/14 08:41:34;;;;;;;62.20;29.00;;;;;;;3.18;100.00;98234.23;271770;1269;22252;-90
2023/12/14 08:47:36;;;;;;;72.10;30.60;;;;;;;3.21;100.00;98245.48;273606;1270;22523;-90
2023/12/14 08:53:38;;;;;;;64.10;29.20;;;;;;;3.26;100.00;98255.41;273169;1269;22471;-91
2023/12/14 08:59:40;;;;;;;69.00;30.50;;;;;;;3.24;100.00;98267.46;273252;1269;22215;-90
2023/12/14 09:05:43;;;;;;;63.40;28.40;;;;;;;3.28;100.00;98269.87;272884;1270;23334;-90
2023/12/14 09:11:49;;;;;;;63.80;30.00;;;;;;;3.32;100.00;98277.40;273516;1269;22405;-90
2023/12/14 09:17:51;;;;;;;56.80;27.80;;;;;;;3.39;100.00;98289.41;272856;1269;22289;-89
2023/12/14 09:23:53;;;;;;;54.30;27.00;;;;;;;3.44;100.00;98294.13;273419;1269;22253;-90
2023/12/14 09:29:56;;;;;;;58.70;27.20;;;;;;;3.45;100.00;98302.03;273586;1270;22396;-90
2023/12/14 09:36:00;;;;;;;58.50;27.70;;;;;;;3.48;100.00;98313.86;273036;1270;22509;-90
2023/12/14 09:42:16;;;;;;;55.70;27.50;;;;;;;3.54;100.00;98317.83;273277;1270;22219;-90
2023/12/14 09:48:22;;;;;;;55.70;26.10;;;;;;;3.59;100.00;98316.89;271418;1270;22314;-90
2023/12/14 09:54:30;;;;;;;53.30;25.10;;;;;;;3.66;100.00;98316.67;272154;1270;22524;-90
2023/12/14 10:00:40;;;;;;;50.50;25.00;;;;;;;3.69;100.00;98317.33;272752;1277;22281;-89
2023/12/14 10:06:44;;;;;;;60.10;27.10;;;;;;;3.73;100.00;98319.30;271972;1270;22562;-89
2023/12/14 10:12:53;;;;;;;53.90;27.20;;;;;;;3.78;100.00;98324.30;270037;1270;24740;-89
2023/12/14 10:18:58;;;;;;;50.60;24.00;;;;;;;3.83;100.00;98330.83;271118;1270;22241;-88
2023/12/14 10:25:01;;;;;;;56.90;28.20;;;;;;;3.83;100.00;98335.79;272776;1269;22316;-89
2023/12/14 10:31:05;;;;;;;51.90;25.50;;;;;;;3.84;100.00;98340.68;272176;1269;23742;-89
2023/12/14 10:37:10;;;;;;;53.20;28.10;;;;;;;3.83;100.00;98343.14;271099;1270;197813;-92
2023/12/14 10:43:12;;;;;;;58.50;27.20;;;;;;;3.87;100.00;98351.38;271063;1268;23817;-89
2023/12/14 10:49:15;;;;;;;52.70;27.20;;;;;;;3.87;100.00;98357.79;271791;1269;22556;-90
2023/12/14 10:55:23;;;;;;;53.50;27.20;;;;;;;3.88;100.00;98361.77;270501;1269;25304;-88
2023/12/14 11:01:25;;;;;;;54.30;27.70;;;;;;;3.94;100.00;98368.06;271999;1269;22993;-89
2023/12/14 11:07:47;;;;;;;50.80;26.00;;;;;;;3.96;100.00;98374.13;271976;1270;22533;-89
2023/12/14 11:13:53;;;;;;;50.70;26.10;;;;;;;3.93;100.00;98382.95;272553;1270;22297;-89
2023/12/14 11:19:55;;;;;;;55.60;27.20;;;;;;;3.90;100.00;98388.27;273420;1270;22485;-90
2023/12/14 11:26:06;;;;;;;46.90;24.50;;;;;;;3.91;100.00;98389.47;273243;1269;22301;-89
2023/12/14 11:32:08;;;;;;;47.00;24.10;;;;;;;3.90;100.00;98395.88;273488;1270;22448;-89
2023/12/14 11:38:12;;;;;;;49.90;25.10;;;;;;;3.89;100.00;98394.14;273722;1268;22215;-89
2023/12/14 11:44:22;;;;;;;46.90;26.10;;;;;;;3.93;100.00;98397.02;273888;1268;22302;-90
2023/12/14 11:50:26;;;;;;;57.20;29.10;;;;;;;3.90;100.00;98397.64;273405;1269;22278;-89
2023/12/14 11:56:30;;;;;;;56.30;29.70;;;;;;;3.89;100.00;98402.56;273737;1262;22414;-89
2023/12/14 12:02:34;;;;;;;54.70;30.50;;;;;;;3.90;100.00;98408.16;271682;1269;22537;-89
2023/12/14 12:08:42;;;;;;;59.90;32.00;;;;;;;3.86;100.00;98418.42;270291;1270;22790;-90
2023/12/14 12:14:44;;;;;;;56.40;30.70;;;;;;;3.80;100.00;98427.75;272516;1268;22182;-90
2023/12/14 12:20:46;;;;;;;50.50;28.60;;;;;;;3.77;100.00;98439.74;272578;1269;22447;-89
2023/12/14 12:26:49;;;;;;;49.80;27.50;;;;;;;3.78;100.00;98449.27;271845;1269;23187;-90
2023/12/14 12:32:51;;;;;;;41.50;24.00;;;;;;;3.79;100.00;98457.96;273126;1269;22699;-90
2023/12/14 12:38:53;;;;;;;46.40;24.90;;;;;;;3.79;100.00;98457.83;272434;1269;23472;-90
2023/12/14 12:44:56;;;;;;;43.20;23.60;;;;;;;3.80;100.00;98458.01;271807;1267;22315;-91
2023/12/14 12:50:58;;;;;;;41.40;24.50;;;;;;;3.82;100.00;98464.63;273810;1269;22305;-91
2023/12/14 12:57:01;;;;;;;44.10;24.50;;;;;;;3.88;100.00;98475.16;273650;1268;22676;-91
2023/12/14 13:03:03;;;;;;;41.90;23.90;;;;;;;3.92;100.00;98485.91;273688;1268;22377;-89
2023/12/14 13:09:06;;;;;;;49.20;27.60;;;;;;;3.95;100.00;98496.11;273814;1268;22251;-90
2023/12/14 13:15:08;;;;;;;41.00;24.70;;;;;;;3.97;100.00;98501.27;273275;1269;22604;-90
2023/12/14 13:21:11;;;;;;;46.40;26.10;;;;;;;3.98;100.00;98503.92;273520;1269;22197;-90
2023/12/14 13:27:13;;;;;;;47.80;28.40;;;;;;;3.96;100.00;98510.23;270859;1268;22561;-89
2023/12/14 13:33:16;;;;;;;46.70;28.30;;;;;;;3.97;100.00;98523.11;272605;1269;22436;-90
2023/12/14 13:39:19;;;;;;;51.40;31.70;;;;;;;3.94;100.00;98530.59;273268;1269;22530;-90
2023/12/14 13:45:22;;;;;;;49.60;29.30;;;;;;;3.96;100.00;98542.58;273771;1269;23701;-90
2023/12/14 13:51:25;;;;;;;58.40;35.10;;;;;;;3.96;100.00;98555.73;273677;1268;22397;-89
2023/12/14 13:57:27;;;;;;;61.20;34.70;;;;;;;3.92;100.00;98570.16;273486;1267;22192;-90
2023/12/14 14:03:33;;;;;;;60.70;34.40;;;;;;;3.89;100.00;98584.52;273293;1269;22547;-90
2023/12/14 14:09:35;;;;;;;58.60;33.50;;;;;;;3.85;100.00;98594.92;272869;1269;23438;-89
2023/12/14 14:15:37;;;;;;;59.10;35.80;;;;;;;3.82;100.00;98601.66;273186;1269;22212;-89
2023/12/14 14:21:39;;;;;;;56.50;34.30;;;;;;;3.79;100.00;98605.34;273052;1268;22275;-89
2023/12/14 14:27:42;;;;;;;58.00;33.40;;;;;;;3.74;100.00;98612.67;272547;1269;23364;-89
2023/12/14 14:33:44;;;;;;;61.70;34.90;;;;;;;3.69;100.00;98625.66;270610;1267;23867;-89
2023/12/14 14:39:47;;;;;;;63.40;36.10;;;;;;;3.66;100.00;98640.58;271610;1269;23334;-89
2023/12/14 14:45:49;;;;;;;76.10;38.20;;;;;;;3.66;100.00;98655.64;272574;1262;22322;-90
2023/12/14 14:51:51;;;;;;;77.50;41.60;;;;;;;3.66;100.00;98664.24;273510;1269;22553;-90
2023/12/14 14:57:53;;;;;;;74.60;39.40;;;;;;;3.68;100.00;98671.95;271642;1269;22587;-90
2023/12/14 15:03:56;;;;;;;69.60;38.70;;;;;;;3.70;100.00;98675.81;272490;1269;22539;-88
2023/12/14 15:09:58;;;;;;;73.90;39.70;;;;;;;3.70;100.00;98680.14;273250;1256;22225;-90
2023/12/14 15:16:03;;;;;;;82.00;40.70;;;;;;;3.70;100.00;98688.20;273096;1269;22591;-89
2023/12/14 15:22:05;;;;;;;86.20;41.80;;;;;;;3.68;100.00;98687.11;272500;1267;22387;-90
2023/12/14 15:28:09;;;;;;;87.40;43.80;;;;;;;3.66;100.00;98688.15;272869;1269;22521;-89
2023/12/14 15:34:11;;;;;;;87.10;43.70;;;;;;;3.67;100.00;98699.69;271328;1268;24203;-89
2023/12/14 15:40:14;;;;;;;97.60;49.20;;;;;;;3.66;100.00;98708.40;271874;1269;22566;-88
2023/12/14 15:46:16;;;;;;;102.50;47.50;;;;;;;3.66;100.00;98713.91;271771;1268;22207;-89
2023/12/14 15:52:18;;;;;;;100.60;49.20;;;;;;;3.67;100.00;98714.98;272924;1268;22616;-89
2023/12/14 15:58:20;;;;;;;98.70;48.20;;;;;;;3.67;100.00;98726.55;270836;1269;22536;-89
2023/12/14 16:04:22;;;;;;;93.00;47.40;;;;;;;3.66;100.00;98727.20;270866;1269;22636;-88
2023/12/14 16:10:25;;;;;;;103.70;50.70;;;;;;;3.67;100.00;98737.28;271458;1267;22668;-89
2023/12/14 16:16:27;;;;;;;105.00;49.30;;;;;;;3.67;100.00;98743.48;270908;1269;22855;-89
2023/12/14 16:22:29;;;;;;;112.30;52.40;;;;;;;3.68;100.00;98759.21;271670;1268;23362;-89
2023/12/14 16:28:31;;;;;;;114.90;53.30;;;;;;;3.68;100.00;98769.97;271631;1269;22432;-88
2023/12/14 16:34:34;;;;;;;111.80;54.10;;;;;;;3.69;100.00;98778.66;273302;1269;22541;-88
2023/12/14 16:40:37;;;;;;;118.60;54.50;;;;;;;3.71;100.00;98787.45;273404;1268;22399;-89
2023/12/14 16:46:39;;;;;;;111.40;50.90;;;;;;;3.71;100.00;98797.11;273647;1269;23497;-89
2023/12/14 16:52:42;;;;;;;98.30;48.20;;;;;;;3.70;100.00;98804.44;273689;1267;22200;-89
2023/12/14 16:58:45;;;;;;;106.10;49.50;;;;;;;3.70;100.00;98813.65;273709;1268;22300;-87
2023/12/14 17:04:51;;;;;;;99.70;46.10;;;;;;;3.69;100.00;98825.14;273478;1269;23677;-89
2023/12/14 17:10:53;;;;;;;110.60;49.00;;;;;;;3.69;100.00;98831.72;273522;1269;22390;-88
2023/12/14 17:16:56;;;;;;;109.40;49.30;;;;;;;3.69;100.00;98834.35;273481;1261;22916;-88
2023/12/14 17:23:02;;;;;;;104.10;49.10;;;;;;;3.68;100.00;98842.73;273559;1268;23457;-87
2023/12/14 17:29:09;;;;;;;83.00;41.90;;;;;;;3.66;100.00;98847.16;273153;1269;22195;-88
2023/12/14 17:35:11;;;;;;;102.20;47.60;;;;;;;3.66;100.00;98851.79;273594;1269;22549;-88
2023/12/14 17:41:14;;;;;;;107.50;49.40;;;;;;;3.66;100.00;98858.46;273331;1269;22346;-87
2023/12/14 17:47:17;;;;;;;103.90;47.80;;;;;;;3.66;100.00;98866.02;273587;1271;22387;-88
2023/12/14 17:53:20;;;;;;;97.10;45.80;;;;;;;3.65;100.00;98874.49;273406;1270;22805;-88
2023/12/14 17:59:22;;;;;;;109.20;48.60;;;;;;;3.65;100.00;98889.88;273593;1275;22185;-88
2023/12/14 18:05:24;;;;;;;111.20;50.10;;;;;;;3.65;100.00;98900.33;273592;1268;22205;-88
2023/12/14 18:11:27;;;;;;;108.70;47.40;;;;;;;3.65;100.00;98904.19;273461;1268;22405;-88
2023/12/14 18:17:29;;;;;;;106.30;48.50;;;;;;;3.64;100.00;98913.61;272973;1269;22469;-87
2023/12/14 18:23:31;;;;;;;100.80;47.40;;;;;;;3.64;100.00;98920.01;265031;1269;10001373;-89
2023/12/14 18:29:33;;;;;;;102.50;49.20;;;;;;;3.62;100.00;98929.99;272830;1272;22383;-88
2023/12/14 18:35:36;;;;;;;105.60;49.50;;;;;;;3.61;100.00;98935.23;273094;1267;22489;-88
2023/12/14 18:41:38;;;;;;;106.30;50.00;;;;;;;3.61;100.00;98939.88;273147;1272;22248;-87
2023/12/14 18:47:40;;;;;;;101.30;50.00;;;;;;;3.61;100.00;98954.02;273044;1269;22445;-88
2023/12/14 18:53:42;;;;;;;106.00;49.70;;;;;;;3.60;100.00;98966.83;273226;1271;22334;-88
2023/12/14 18:59:44;;;;;;;100.70;48.60;;;;;;;3.60;100.00;98979.66;272482;1267;22402;-87
2023/12/14 19:05:46;;;;;;;99.70;49.00;;;;;;;3.60;100.00;98986.30;273107;1272;22407;-88
2023/12/14 19:11:50;;;;;;;90.00;45.70;;;;;;;3.59;100.00;98994.16;273093;1269;22448;-88
2023/12/14 19:17:52;;;;;;;90.70;43.80;;;;;;;3.58;100.00;98998.90;273100;1270;22302;-88
2023/12/14 19:23:54;;;;;;;81.70;41.40;;;;;;;3.57;100.00;99008.46;272786;1270;23497;-87
2023/12/14 19:29:57;;;;;;;81.20;41.60;;;;;;;3.56;100.00;99016.53;273004;1269;23516;-89
2023/12/14 19:36:00;;;;;;;73.30;37.90;;;;;;;3.53;100.00;99019.06;271942;1272;22450;-88
2023/12/14 19:42:03;;;;;;;74.50;37.60;;;;;;;3.53;100.00;99020.59;272319;1272;22549;-88
2023/12/14 19:48:05;;;;;;;78.10;41.70;;;;;;;3.52;100.00;99031.39;272937;1269;22440;-86
2023/12/14 19:54:08;;;;;;;66.80;35.70;;;;;;;3.52;100.00;99042.13;273578;1271;23172;-88
2023/12/14 20:00:10;;;;;;;72.20;38.20;;;;;;;3.51;100.00;99053.60;273519;1262;23585;-88
2023/12/14 20:06:23;;;;;;;70.90;37.80;;;;;;;3.49;100.00;99063.29;273611;1269;22181;-88
2023/12/14 20:12:25;;;;;;;77.60;38.60;;;;;;;3.47;100.00;99072.61;271806;1270;22593;-88
2023/12/14 20:18:27;;;;;;;80.90;40.90;;;;;;;3.46;100.00;99086.63;272700;1272;23557;-88
2023/12/14 20:24:49;;;;;;;88.40;41.50;;;;;;;3.45;100.00;99097.36;271581;1269;22529;-87
2023/12/14 20:30:51;;;;;;;77.40;39.70;;;;;;;3.43;100.00;99111.10;273118;1269;22482;-88
2023/12/14 20:36:56;;;;;;;85.50;41.70;;;;;;;3.41;100.00;99118.14;272402;1270;22596;-87
2023/12/14 20:42:59;;;;;;;74.00;36.60;;;;;;;3.40;100.00;99125.25;272615;1270;23389;-88
2023/12/14 20:49:02;;;;;;;76.00;38.30;;;;;;;3.39;100.00;99137.10;273493;1267;23351;-87
2023/12/14 20:55:05;;;;;;;70.20;33.50;;;;;;;3.37;100.00;99147.77;273182;1266;22556;-87
2023/12/14 21:01:13;;;;;;;71.30;35.50;;;;;;;3.37;100.00;99150.45;271719;1270;25333;-89
2023/12/14 21:07:17;;;;;;;63.00;32.90;;;;;;;3.33;100.00;99158.13;271301;1270;23090;-87
2023/12/14 21:13:23;;;;;;;67.90;32.60;;;;;;;3.31;100.00;99162.98;271541;1272;22410;-87
2023/12/14 21:19:25;;;;;;;63.20;31.90;;;;;;;3.31;100.00;99162.88;272152;1273;22499;-89
2023/12/14 21:25:37;;;;;;;61.00;30.80;;;;;;;3.30;100.00;99174.66;271272;1269;25618;-89
2023/12/14 21:31:39;;;;;;;60.50;29.00;;;;;;;3.31;100.00;99177.48;273659;1262;22948;-89
2023/12/14 21:37:41;;;;;;;63.40;32.20;;;;;;;3.30;100.00;99190.67;273677;1274;22892;-89
2023/12/14 21:43:45;;;;;;;68.00;33.80;;;;;;;3.29;100.00;99203.63;273658;1271;22547;-89
2023/12/14 21:49:47;;;;;;;72.00;35.60;;;;;;;3.27;100.00;99213.82;270390;1270;22556;-90
2023/12/14 21:55:49;;;;;;;64.60;33.10;;;;;;;3.24;100.00;99223.44;273493;1269;24473;-90
2023/12/14 22:01:51;;;;;;;65.10;33.20;;;;;;;3.22;100.00;99230.27;273616;1269;22255;-90
2023/12/14 22:07:58;;;;;;;67.50;33.40;;;;;;;3.20;100.00;99234.48;271461;1269;23565;-88
2023/12/14 22:14:03;;;;;;;64.70;31.80;;;;;;;3.17;100.00;99246.64;271221;1270;25491;-88
2023/12/14 22:20:08;;;;;;;59.70;27.00;;;;;;;3.12;100.00;99261.80;270726;1273;22650;-89
2023/12/14 22:26:11;;;;;;;49.60;24.50;;;;;;;3.04;100.00;99275.67;270536;1272;23413;-89
2023/12/14 22:32:13;;;;;;;51.10;24.20;;;;;;;2.99;100.00;99283.82;270845;1271;22190;-88
2023/12/14 22:38:15;;;;;;;46.00;22.10;;;;;;;2.94;100.00;99292.19;270145;1257;119521;-87
2023/12/14 22:44:17;;;;;;;44.20;20.90;;;;;;;2.89;100.00;99302.56;272085;1270;22386;-89
2023/12/14 22:50:20;;;;;;;54.40;26.00;;;;;;;2.86;100.00;99314.55;272346;1272;22550;-88
2023/12/14 22:56:24;;;;;;;52.70;26.30;;;;;;;2.86;100.00;99325.69;271244;1270;22581;-87
2023/12/14 23:03:20;;;;;;;42.50;20.80;;;;;;;2.89;100.00;99331.77;270407;1267;22641;-88
2023/12/14 23:09:45;;;;;;;41.10;21.60;;;;;;;2.88;100.00;99340.38;273617;1271;22500;-88
2023/12/14 23:15:47;;;;;;;44.60;21.80;;;;;;;2.85;100.00;99347.40;272692;1267;23280;-88
2023/12/14 23:21:49;;;;;;;41.90;21.40;;;;;;;2.83;100.00;99355.30;273827;1270;22276;-88
2023/12/14 23:27:51;;;;;;;41.20;21.90;;;;;;;2.81;100.00;99357.96;273183;1267;22387;-87
2023/12/14 23:35:01;;;;;;;42.20;22.60;;;;;;;2.77;100.00;99369.04;273813;1276;22362;-88
2023/12/14 23:41:10;;;;;;;48.80;23.60;;;;;;;2.75;100.00;99372.90;273770;1269;22297;-89
2023/12/14 23:47:12;;;;;;;46.20;22.50;;;;;;;2.76;100.00;99379.58;273494;1270;22526;-88
2023/12/14 23:53:14;;;;;;;43.80;22.20;;;;;;;2.73;100.00;99388.30;272479;1267;25530;-87
2023/12/14 23:59:16;;;;;;;43.90;21.40;;;;;;;2.68;100.00;99395.27;271775;1271;22464;-87
